Dunbridge, Ohio
Current Conditions -  °F | °C
As of 1:53 AM on Thursday 27 Nov 2014 (Local Time) from KTDZ Reporting Station
Overcast Overcast  
Wind Chill: 26°   Ceiling: 3100
Heat Index: 32°   Visibility: 10mi
Dew Point: 24°   Wind: 6mph
Humidity: 73%   Direction: 330°NNW
Pressure: 30.09"   Gusts: NA
Location:  41.46°N, 83.61°W
Report Text: KTDZ 270653Z AUTO 33005KT 10SM OVC031 00/M04 A3009 RMK AO2 SLP195 T00001044 TSNO
Loading
Personal Weather Stations






























Interactive Weather Map New forecast layout! Learn more

10-Day Weather Forecast

Advertisements
Track Severe Weather on mobile